createdAt,value
2018-07-08T00:03:47.932Z,99.90
2018-07-08T00:06:16.080Z,99.90
2018-07-08T00:08:44.259Z,99.90
2018-07-08T00:11:12.557Z,99.90
2018-07-08T00:13:40.752Z,99.90
2018-07-08T00:16:08.902Z,99.90
2018-07-08T00:18:36.953Z,99.90
2018-07-08T00:21:05.263Z,99.90
2018-07-08T00:23:33.451Z,99.90
2018-07-08T00:26:01.668Z,99.90
2018-07-08T00:28:29.779Z,99.90
2018-07-08T00:30:57.929Z,99.90
2018-07-08T00:33:26.125Z,99.90
2018-07-08T00:35:54.296Z,99.90
2018-07-08T00:38:22.360Z,99.90
2018-07-08T00:40:50.540Z,99.90
2018-07-08T00:43:18.720Z,99.90
2018-07-08T00:45:47.004Z,99.90
2018-07-08T00:48:15.164Z,99.90
2018-07-08T00:50:43.344Z,99.90
2018-07-08T00:53:11.440Z,99.90
2018-07-08T00:55:39.489Z,99.90
2018-07-08T00:58:07.640Z,99.90
2018-07-08T01:03:06.670Z,99.90
2018-07-08T01:05:35.073Z,99.90
2018-07-08T01:08:03.677Z,99.90
2018-07-08T01:10:31.941Z,99.90
2018-07-08T01:13:00.652Z,99.90
2018-07-08T01:15:28.797Z,99.90
2018-07-08T01:17:57.056Z,99.90
2018-07-08T01:20:25.344Z,99.90
2018-07-08T01:22:53.823Z,99.90
2018-07-08T01:25:33.075Z,99.90
2018-07-08T01:28:01.139Z,99.90
2018-07-08T01:30:29.412Z,99.90
2018-07-08T01:32:57.594Z,99.90
2018-07-08T01:35:25.777Z,99.90
2018-07-08T01:37:53.775Z,99.90
2018-07-08T01:40:22.026Z,99.90
2018-07-08T01:42:50.096Z,99.90
2018-07-08T01:45:18.148Z,99.90
2018-07-08T01:47:46.351Z,99.90
2018-07-08T01:50:14.412Z,99.90
2018-07-08T01:52:42.504Z,99.90
2018-07-08T01:55:10.737Z,99.90
2018-07-08T01:57:38.846Z,99.90
2018-07-08T02:00:07.210Z,99.90
2018-07-08T02:02:35.295Z,99.90
2018-07-08T02:05:03.455Z,99.90
2018-07-08T02:07:31.618Z,99.90
2018-07-08T02:09:59.847Z,99.90
2018-07-08T02:12:27.985Z,99.90
2018-07-08T02:14:56.268Z,99.90
2018-07-08T02:17:24.424Z,99.90
2018-07-08T02:19:52.632Z,99.90
2018-07-08T02:22:20.797Z,99.90
2018-07-08T02:24:49.048Z,99.90
2018-07-08T02:27:17.364Z,99.90
2018-07-08T02:29:45.513Z,99.90
2018-07-08T02:32:13.704Z,99.90
2018-07-08T02:34:42.299Z,99.90
2018-07-08T02:37:10.552Z,99.90
2018-07-08T02:39:38.827Z,99.90
2018-07-08T02:42:07.033Z,99.90
2018-07-08T02:44:35.312Z,99.90
2018-07-08T02:47:03.549Z,99.90
2018-07-08T02:52:00.005Z,99.90
2018-07-08T02:54:28.104Z,99.90
2018-07-08T02:56:56.181Z,99.90
2018-07-08T02:59:24.257Z,99.90
2018-07-08T03:01:52.319Z,99.90
2018-07-08T03:04:20.510Z,99.90
2018-07-08T03:06:48.543Z,99.90
2018-07-08T03:11:44.400Z,99.90
2018-07-08T03:14:12.497Z,99.90
2018-07-08T03:16:40.629Z,99.90
2018-07-08T03:21:36.809Z,99.90
2018-07-08T03:24:04.854Z,99.90
2018-07-08T03:26:33.052Z,99.90
2018-07-08T03:29:01.234Z,99.90
2018-07-08T03:31:29.316Z,99.90
2018-07-08T03:33:57.318Z,99.90
2018-07-08T03:36:25.545Z,99.90
2018-07-08T03:38:53.604Z,99.90
2018-07-08T03:41:21.892Z,99.90
2018-07-08T03:43:49.984Z,99.90
2018-07-08T03:46:18.020Z,99.90
2018-07-08T03:51:13.944Z,99.90
2018-07-08T03:53:41.968Z,99.90
2018-07-08T03:56:10.229Z,99.90
2018-07-08T03:58:38.333Z,99.90
2018-07-08T04:01:06.480Z,99.90
2018-07-08T04:03:34.687Z,99.90
2018-07-08T04:06:02.912Z,99.90
2018-07-08T04:10:58.853Z,99.90
2018-07-08T04:18:22.864Z,99.90
2018-07-08T04:23:19.054Z,99.90
2018-07-08T04:25:47.196Z,99.90
2018-07-08T04:28:15.302Z,99.90
2018-07-08T04:30:43.375Z,99.90
2018-07-08T04:33:11.407Z,99.90
2018-07-08T04:38:07.398Z,99.90
2018-07-08T04:40:35.427Z,99.90
2018-07-08T04:43:03.723Z,99.90
2018-07-08T04:45:31.980Z,99.90
2018-07-08T04:50:28.056Z,99.90
2018-07-08T04:52:56.147Z,99.90
2018-07-08T04:55:24.285Z,99.90
2018-07-08T04:57:52.352Z,99.90
2018-07-08T05:00:20.560Z,99.90
2018-07-08T05:02:48.633Z,99.90
2018-07-08T05:05:16.667Z,99.90
2018-07-08T05:10:12.628Z,99.90
2018-07-08T05:12:40.683Z,99.90
2018-07-08T05:15:08.930Z,99.90
2018-07-08T05:17:37.157Z,99.90
2018-07-08T05:20:05.344Z,99.90
2018-07-08T05:22:33.528Z,99.90
2018-07-08T05:25:01.689Z,99.90
2018-07-08T05:27:29.868Z,99.90
2018-07-08T05:29:57.927Z,99.90
2018-07-08T05:32:26.013Z,99.90
2018-07-08T05:34:54.152Z,99.90
2018-07-08T05:39:50.119Z,99.90
2018-07-08T05:42:18.313Z,99.90
2018-07-08T05:44:46.402Z,99.90
2018-07-08T05:47:14.427Z,99.90
2018-07-08T05:49:42.767Z,99.90
2018-07-08T05:52:11.013Z,99.90
2018-07-08T05:54:39.056Z,99.90
2018-07-08T05:57:07.277Z,99.90
2018-07-08T05:59:35.311Z,99.90
2018-07-08T06:02:03.612Z,99.90
2018-07-08T06:04:31.899Z,99.90
2018-07-08T06:07:00.144Z,99.90
2018-07-08T06:09:28.340Z,99.90
2018-07-08T06:11:56.391Z,99.90
2018-07-08T06:14:24.750Z,99.90
2018-07-08T06:19:21.070Z,99.90
2018-07-08T06:21:49.223Z,99.90
2018-07-08T06:24:17.387Z,99.90
2018-07-08T06:26:45.608Z,99.90
2018-07-08T06:29:13.871Z,99.90
2018-07-08T06:31:41.962Z,99.90
2018-07-08T06:34:10.053Z,99.90
2018-07-08T06:39:06.455Z,99.90
2018-07-08T06:41:34.625Z,99.90
2018-07-08T06:44:02.743Z,99.90
2018-07-08T06:46:30.982Z,99.90
2018-07-08T06:48:59.015Z,99.90
2018-07-08T06:53:55.100Z,99.90
2018-07-08T06:56:23.194Z,99.90
2018-07-08T06:58:51.304Z,99.90
2018-07-08T07:03:47.336Z,99.90
2018-07-08T07:06:15.538Z,99.90
2018-07-08T07:08:43.644Z,99.90
2018-07-08T07:11:11.679Z,99.90
2018-07-08T07:13:39.872Z,99.90
2018-07-08T07:16:07.951Z,99.90
2018-07-08T07:18:36.374Z,99.90
2018-07-08T07:21:04.678Z,99.90
2018-07-08T07:23:32.961Z,99.90
2018-07-08T07:28:29.127Z,99.90
2018-07-08T07:30:57.402Z,99.90
2018-07-08T07:33:25.608Z,99.90
2018-07-08T07:35:53.858Z,99.90
2018-07-08T07:38:22.226Z,99.90
2018-07-08T07:40:50.813Z,99.90
2018-07-08T07:45:48.250Z,99.90
2018-07-08T07:50:44.983Z,99.90
2018-07-08T07:53:13.204Z,99.90
2018-07-08T07:55:41.320Z,99.90
2018-07-08T07:58:09.478Z,99.90
2018-07-08T08:00:37.669Z,99.90
2018-07-08T08:03:06.649Z,99.90
2018-07-08T08:05:34.761Z,99.90
2018-07-08T08:08:02.916Z,99.90
2018-07-08T08:10:31.000Z,99.90
2018-07-08T08:12:59.179Z,99.90
2018-07-08T08:15:27.534Z,99.90
2018-07-08T08:17:55.832Z,99.90
2018-07-08T08:20:24.092Z,99.90
2018-07-08T08:22:52.297Z,99.90
2018-07-08T08:25:20.346Z,99.90
2018-07-08T08:27:48.512Z,99.90
2018-07-08T08:30:16.739Z,99.90
2018-07-08T08:32:45.056Z,99.90
2018-07-08T08:35:14.369Z,99.90
2018-07-08T08:37:43.644Z,99.90
2018-07-08T08:42:40.544Z,99.90
2018-07-08T08:45:09.816Z,99.30
2018-07-08T08:47:38.138Z,99.90
2018-07-08T08:50:07.212Z,99.70
2018-07-08T08:52:35.575Z,99.90
2018-07-08T08:57:47.127Z,97.00
2018-07-08T09:00:16.570Z,97.00
2018-07-08T09:02:44.692Z,99.10
2018-07-08T09:05:12.777Z,97.40
2018-07-08T09:07:43.374Z,98.50
2018-07-08T09:10:12.811Z,97.90
2018-07-08T09:12:41.611Z,97.30
2018-07-08T09:17:39.456Z,97.80
2018-07-08T09:20:07.805Z,95.90
2018-07-08T09:22:35.925Z,95.10
2018-07-08T09:25:04.532Z,95.30
2018-07-08T09:27:32.673Z,95.30
2018-07-08T09:32:30.365Z,98.20
2018-07-08T09:34:59.284Z,96.50
2018-07-08T09:37:27.569Z,95.60
2018-07-08T09:39:56.013Z,96.00
2018-07-08T09:42:24.104Z,95.30
2018-07-08T09:44:52.298Z,92.40
2018-07-08T09:47:20.444Z,95.20
2018-07-08T09:49:48.535Z,93.10
2018-07-08T09:52:16.685Z,94.50
2018-07-08T09:54:44.776Z,95.50
2018-07-08T09:57:12.856Z,95.50
2018-07-08T09:59:41.020Z,93.20
2018-07-08T10:02:09.223Z,93.50
2018-07-08T10:04:37.315Z,93.00
2018-07-08T10:07:05.648Z,93.50
2018-07-08T10:09:33.708Z,92.80
2018-07-08T10:14:29.971Z,92.70
2018-07-08T10:16:58.064Z,92.80
2018-07-08T10:19:26.248Z,94.90
2018-07-08T10:21:54.399Z,92.90
2018-07-08T10:24:22.575Z,94.90
2018-07-08T10:27:06.427Z,93.30
2018-07-08T10:29:34.563Z,94.80
2018-07-08T10:34:30.740Z,93.70
2018-07-08T10:36:58.845Z,93.90
2018-07-08T10:39:26.993Z,95.80
2018-07-08T10:41:55.236Z,94.90
2018-07-08T10:46:51.215Z,94.70
2018-07-08T10:49:19.307Z,93.50
2018-07-08T10:51:47.795Z,93.70
2018-07-08T10:54:15.812Z,95.20
2018-07-08T10:59:11.694Z,94.00
2018-07-08T11:01:39.983Z,95.30
2018-07-08T11:04:08.132Z,94.70
2018-07-08T11:06:36.171Z,96.00
2018-07-08T11:11:32.553Z,94.50
2018-07-08T11:14:00.735Z,94.60
2018-07-08T11:16:28.999Z,95.00
2018-07-08T11:18:57.178Z,96.80
2018-07-08T11:21:25.352Z,95.80
2018-07-08T11:23:53.536Z,95.40
2018-07-08T11:26:21.949Z,94.30
2018-07-08T11:28:49.965Z,95.30
2018-07-08T11:31:18.161Z,94.50
2018-07-08T11:33:46.220Z,96.90
2018-07-08T11:36:14.385Z,95.30
2018-07-08T11:38:42.506Z,93.20
2018-07-08T11:41:10.805Z,94.20
2018-07-08T11:43:38.912Z,95.30
2018-07-08T11:48:35.000Z,94.40
2018-07-08T11:51:03.244Z,93.00
2018-07-08T11:53:31.337Z,95.80
2018-07-08T11:55:59.388Z,94.60
2018-07-08T11:58:27.487Z,95.60
2018-07-08T12:00:55.659Z,95.10
2018-07-08T12:03:23.859Z,94.50
2018-07-08T12:05:51.887Z,95.10
2018-07-08T12:08:19.951Z,95.20
2018-07-08T12:13:16.496Z,94.00
2018-07-08T12:15:44.732Z,95.20
2018-07-08T12:18:12.864Z,95.20
2018-07-08T12:20:41.188Z,93.70
2018-07-08T12:23:09.529Z,94.90
2018-07-08T12:25:37.805Z,93.20
2018-07-08T12:28:06.013Z,94.50
2018-07-08T12:30:34.072Z,94.00
2018-07-08T12:33:02.164Z,95.20
2018-07-08T12:35:30.305Z,95.50
2018-07-08T12:40:26.848Z,95.50
2018-07-08T12:45:22.903Z,96.70
2018-07-08T12:47:50.965Z,93.90
2018-07-08T12:52:46.820Z,92.10
2018-07-08T12:55:15.254Z,92.10
2018-07-08T12:57:43.376Z,93.00
2018-07-08T13:00:11.695Z,93.50
2018-07-08T13:02:39.756Z,93.60
2018-07-08T13:05:07.897Z,92.00
2018-07-08T13:07:36.105Z,92.90
2018-07-08T13:10:04.337Z,94.90
2018-07-08T13:15:01.414Z,94.20
2018-07-08T13:19:58.670Z,91.30
2018-07-08T13:27:22.914Z,92.30
2018-07-08T13:29:51.214Z,92.60
2018-07-08T13:32:19.385Z,91.80
2018-07-08T13:34:47.782Z,91.60
2018-07-08T13:37:15.939Z,92.00
2018-07-08T13:39:44.017Z,90.90
2018-07-08T13:42:12.093Z,92.30
2018-07-08T13:44:40.148Z,93.40
2018-07-08T13:47:08.338Z,94.20
2018-07-08T13:49:36.389Z,91.10
2018-07-08T14:16:16.747Z,92.10
2018-07-08T14:18:44.797Z,89.50
2018-07-08T14:21:12.912Z,89.90
2018-07-08T14:23:41.053Z,89.20
2018-07-08T14:26:09.339Z,91.20
2018-07-08T14:28:37.595Z,91.80
2018-07-08T14:33:33.804Z,83.90
2018-07-08T14:36:01.823Z,85.90
2018-07-08T14:38:30.369Z,87.70
2018-07-08T14:40:58.593Z,85.00
2018-07-08T14:58:02.341Z,86.60
2018-07-08T15:00:30.511Z,85.00
2018-07-08T15:02:58.668Z,87.30
2018-07-08T15:05:26.767Z,80.90
2018-07-08T15:07:55.038Z,87.30
2018-07-08T15:10:23.353Z,85.30
2018-07-08T15:12:51.709Z,83.20
2018-07-08T15:15:19.809Z,88.20
2018-07-08T15:17:48.091Z,86.50
2018-07-08T15:20:16.126Z,87.40
2018-07-08T15:22:44.285Z,85.60
2018-07-08T15:25:12.345Z,87.90
2018-07-08T15:27:40.544Z,89.00
2018-07-08T15:30:08.829Z,87.50
2018-07-08T15:32:36.989Z,85.80
2018-07-08T15:35:05.555Z,85.30
2018-07-08T15:37:33.859Z,88.60
2018-07-08T15:40:02.130Z,87.30
2018-07-08T15:42:30.339Z,89.10
2018-07-08T15:44:58.372Z,88.20
2018-07-08T15:47:26.601Z,84.70
2018-07-08T15:49:54.948Z,86.20
2018-07-08T15:52:23.229Z,83.60
2018-07-08T15:54:51.298Z,84.10
2018-07-08T15:57:19.460Z,87.10
2018-07-08T15:59:47.811Z,87.90
2018-07-08T16:04:43.995Z,89.90
2018-07-08T16:07:13.007Z,90.40
2018-07-08T16:09:41.182Z,88.60
2018-07-08T16:12:09.381Z,87.30
2018-07-08T16:14:37.475Z,87.20
2018-07-08T16:17:05.838Z,88.00
2018-07-08T16:19:34.449Z,87.60
2018-07-08T16:24:31.111Z,87.50
2018-07-08T16:29:27.282Z,90.30
2018-07-08T16:31:55.378Z,90.20
2018-07-08T16:34:23.736Z,88.00
2018-07-08T16:36:52.434Z,88.80
2018-07-08T16:39:20.630Z,87.80
2018-07-08T16:41:49.225Z,89.50
2018-07-08T16:44:17.366Z,90.10
2018-07-08T16:46:45.689Z,88.90
2018-07-08T16:49:13.904Z,82.60
2018-07-08T16:51:42.704Z,76.60
2018-07-08T16:54:10.819Z,77.30
2018-07-08T16:56:39.488Z,74.70
2018-07-08T16:59:07.552Z,74.30
2018-07-08T17:01:35.800Z,71.20
2018-07-08T17:06:32.060Z,71.10
2018-07-08T17:09:00.269Z,76.30
2018-07-08T17:11:29.664Z,73.10
2018-07-08T17:13:58.597Z,69.80
2018-07-08T17:16:27.379Z,70.10
2018-07-08T17:18:55.992Z,68.90
2018-07-08T17:21:26.369Z,68.30
2018-07-08T17:23:55.434Z,65.80
2018-07-08T17:26:24.667Z,64.10
2018-07-08T17:31:21.917Z,62.70
2018-07-08T17:33:50.303Z,61.70
2018-07-08T17:36:18.589Z,62.40
2018-07-08T17:38:47.620Z,61.50
2018-07-08T17:43:44.679Z,61.40
2018-07-08T17:46:13.286Z,60.00
2018-07-08T17:48:41.926Z,61.80
2018-07-08T17:51:10.715Z,60.00
2018-07-08T17:53:39.953Z,61.00
2018-07-08T17:56:08.360Z,60.10
2018-07-08T18:01:04.884Z,63.10
2018-07-08T18:03:33.211Z,60.70
2018-07-08T18:06:01.517Z,63.00
2018-07-08T18:08:29.997Z,60.80
2018-07-08T18:10:58.156Z,63.00
2018-07-08T18:13:27.325Z,63.70
2018-07-08T18:18:23.295Z,63.60
2018-07-08T18:20:51.678Z,64.00
2018-07-08T18:23:19.901Z,67.00
2018-07-08T18:25:47.220Z,69.40
2018-07-08T18:28:15.454Z,69.30
2018-07-08T18:33:11.532Z,69.60
2018-07-08T18:35:39.729Z,72.40
2018-07-08T18:38:08.296Z,74.60
2018-07-08T18:40:36.488Z,79.20
2018-07-08T18:43:04.641Z,83.80
2018-07-08T18:45:32.943Z,86.90
2018-07-08T18:48:00.986Z,85.80
2018-07-08T18:50:29.198Z,85.20
2018-07-08T18:52:57.548Z,87.90
2018-07-08T18:55:25.834Z,91.20
2018-07-08T18:57:54.013Z,90.10
2018-07-08T19:00:22.160Z,92.20
2018-07-08T19:02:50.381Z,92.50
2018-07-08T19:05:20.847Z,92.00
2018-07-08T19:07:52.867Z,92.10
2018-07-08T19:12:53.096Z,96.40
2018-07-08T19:15:21.506Z,99.90
2018-07-08T19:17:49.781Z,99.90
2018-07-08T19:20:17.925Z,99.90
2018-07-08T19:22:46.108Z,99.90
2018-07-08T19:25:14.274Z,99.90
2018-07-08T19:27:42.408Z,99.90
2018-07-08T19:30:10.532Z,99.90
2018-07-08T19:32:39.742Z,99.90
2018-07-08T19:35:07.993Z,99.90
2018-07-08T19:37:36.250Z,99.90
2018-07-08T19:42:32.537Z,99.90
2018-07-08T19:45:00.813Z,99.90
2018-07-08T19:47:29.082Z,99.90
2018-07-08T19:49:57.271Z,99.90
2018-07-08T19:52:32.412Z,99.90
2018-07-08T19:55:12.494Z,99.90
2018-07-08T19:57:51.294Z,99.90
2018-07-08T20:00:30.683Z,99.90
2018-07-08T20:03:09.077Z,99.90
2018-07-08T20:05:46.769Z,99.90
2018-07-08T20:08:15.537Z,99.90
2018-07-08T20:10:47.666Z,99.90
2018-07-08T20:15:50.056Z,99.90
2018-07-08T20:18:20.196Z,99.90
2018-07-08T20:20:50.380Z,99.90
2018-07-08T20:23:21.729Z,99.90
2018-07-08T20:25:53.043Z,99.90
2018-07-08T20:28:24.901Z,99.90
2018-07-08T20:30:56.501Z,99.90
2018-07-08T20:33:27.926Z,99.90
2018-07-08T20:37:45.314Z,99.90
2018-07-08T20:40:18.399Z,99.90
2018-07-08T20:45:22.122Z,99.90
2018-07-08T20:50:26.174Z,99.90
2018-07-08T20:52:59.027Z,99.90
2018-07-08T20:55:31.736Z,99.90
2018-07-08T20:58:03.858Z,99.90
2018-07-08T21:00:35.556Z,99.90
2018-07-08T21:05:39.083Z,99.90
2018-07-08T21:08:10.638Z,99.90
2018-07-08T21:10:42.260Z,99.90
2018-07-08T21:13:14.705Z,99.90
2018-07-08T21:15:48.379Z,99.90
2018-07-08T21:18:20.667Z,99.90
2018-07-08T21:20:52.985Z,99.90
2018-07-08T21:23:25.375Z,99.90
2018-07-08T21:31:00.405Z,99.90
2018-07-08T21:33:32.438Z,99.90
2018-07-08T21:36:04.680Z,99.90
2018-07-08T21:38:38.391Z,99.90
2018-07-08T21:43:43.663Z,99.90
2018-07-08T21:46:15.724Z,99.90
2018-07-08T21:51:18.973Z,99.90
2018-07-08T21:53:51.278Z,99.90
2018-07-08T21:56:23.724Z,99.90
2018-07-08T21:58:55.641Z,99.90
2018-07-08T22:06:32.572Z,99.90
2018-07-08T22:11:38.901Z,99.90
2018-07-08T22:14:11.617Z,99.90
2018-07-08T22:16:44.314Z,99.90
2018-07-08T22:21:48.294Z,99.90
2018-07-08T22:24:20.104Z,99.90
2018-07-08T22:31:54.412Z,99.90
2018-07-08T22:34:26.424Z,99.90
2018-07-08T22:39:29.837Z,99.90
2018-07-08T22:42:02.190Z,99.90
2018-07-08T22:44:34.902Z,99.90
2018-07-08T22:49:39.200Z,99.90
2018-07-08T22:52:11.767Z,99.90
2018-07-08T22:57:17.474Z,99.90
2018-07-08T22:59:59.477Z,99.90
2018-07-08T23:02:45.609Z,99.90
2018-07-08T23:07:49.291Z,99.90
2018-07-08T23:10:22.096Z,99.90
2018-07-08T23:15:25.899Z,99.90
2018-07-08T23:17:57.922Z,99.90
2018-07-08T23:20:30.896Z,99.90
2018-07-08T23:23:04.101Z,99.90
2018-07-08T23:25:36.377Z,99.90
2018-07-08T23:28:09.107Z,99.90
2018-07-08T23:33:12.323Z,99.90
2018-07-08T23:35:44.823Z,99.90
2018-07-08T23:38:17.409Z,99.90
2018-07-08T23:40:49.268Z,99.90
2018-07-08T23:43:21.366Z,99.90
2018-07-08T23:45:53.446Z,99.90
2018-07-08T23:48:25.548Z,99.90
2018-07-08T23:50:57.761Z,99.90
2018-07-08T23:53:31.690Z,99.90
2018-07-08T23:56:05.830Z,99.90
2018-07-08T23:58:37.394Z,99.90
